Grady, Alabama
Current Conditions -  °F | °C
As of 12:53 AM on Friday 28 Nov 2014 (Local Time) from KTOI Reporting Station
Clear Clear  
Wind Chill: -2°   Ceiling: Unl
Heat Index:   Visibility: 10mi
Dew Point: -2°   Wind: 6mph
Humidity: 85%   Direction: 340°NNW
Pressure: 30.42"   Gusts: NA
Location:  32°N, 86.2°W
Report Text: KTOI 280653Z AUTO 34005KT 10SM CLR 01/M02 A3042 RMK AO2 SLP300 T00061017
Loading
Personal Weather Stations






























Interactive Weather Map New forecast layout! Learn more

10-Day Weather Forecast

Advertisements
Track Severe Weather on mobile